Time;durP1;ratioP1;P1;durP2;ratioP2;P2;SDS_P1;SDS_P2;PMS_P1;PMS_P2;Temp;Humidity;BMP_temperature;BMP_pressure;BME280_temperature;BME280_humidity;BME280_pressure;Samples;Min_cycle;Max_cycle;Signal;HPM_P1;HPM_P2
2023/07/29 00:00:27;;;;;;;6.32;4.20;;;;;;;15.18;100.00;95694.16;1019971;28;20023;-74
2023/07/29 00:01:00;;;;;;;11.98;4.88;;;;;;;15.19;100.00;95698.34;1018570;28;20020;-75
2023/07/29 00:01:31;;;;;;;6.20;4.28;;;;;;;15.13;100.00;95684.47;1015264;29;20035;-74
2023/07/29 00:02:01;;;;;;;7.72;4.65;;;;;;;15.16;100.00;95691.81;1024678;28;20031;-73
2023/07/29 00:02:32;;;;;;;7.28;5.53;;;;;;;15.16;100.00;95691.81;1023984;28;20023;-74
2023/07/29 00:03:02;;;;;;;8.07;5.47;;;;;;;15.04;100.00;95673.75;1018358;29;20413;-74
2023/07/29 00:03:33;;;;;;;7.75;5.00;;;;;;;15.10;100.00;95679.75;1018021;28;20090;-74
2023/07/29 00:04:04;;;;;;;7.95;5.38;;;;;;;15.13;100.00;95689.75;1018647;28;20028;-72
2023/07/29 00:04:35;;;;;;;5.55;4.32;;;;;;;15.04;100.00;95678.28;1014912;29;20379;-75
2023/07/29 00:05:05;;;;;;;6.55;4.18;;;;;;;15.12;100.00;95687.38;1014956;29;20027;-73
2023/07/29 00:05:39;;;;;;;7.47;4.53;;;;;;;15.13;100.00;95691.59;1022356;28;20509;-74
2023/07/29 00:06:09;;;;;;;5.95;4.75;;;;;;;15.10;100.00;95687.69;1018090;29;20027;-75
2023/07/29 00:06:40;;;;;;;6.63;4.72;;;;;;;15.12;100.00;95688.16;1019306;29;20051;-75
2023/07/29 00:07:10;;;;;;;10.57;4.97;;;;;;;15.05;100.00;95682.47;1016191;29;20032;-76
2023/07/29 00:07:41;;;;;;;10.10;4.93;;;;;;;15.08;100.00;95689.81;1020424;28;20035;-73
2023/07/29 00:08:11;;;;;;;6.78;4.72;;;;;;;15.11;100.00;95694.53;1018569;29;20082;-74
2023/07/29 00:08:42;;;;;;;7.90;4.88;;;;;;;15.12;100.00;95697.94;1018739;29;20732;-74
2023/07/29 00:09:12;;;;;;;7.28;4.75;;;;;;;15.10;100.00;95690.31;1018798;28;20027;-74
2023/07/29 00:09:43;;;;;;;7.07;5.38;;;;;;;15.13;100.00;95692.38;1026979;28;20643;-75
2023/07/29 00:10:13;;;;;;;5.57;4.90;;;;;;;15.12;100.00;95697.94;1030376;28;20120;-73
2023/07/29 00:10:43;;;;;;;12.05;5.20;;;;;;;15.11;100.00;95694.53;1030157;28;20033;-75
2023/07/29 00:11:14;;;;;;;7.53;4.57;;;;;;;15.12;100.00;95696.09;1022552;29;20019;-74
2023/07/29 00:11:44;;;;;;;7.47;4.70;;;;;;;15.11;100.00;95691.88;1014861;29;20032;-73
2023/07/29 00:12:15;;;;;;;6.05;4.30;;;;;;;15.13;100.00;95694.25;1026643;28;20657;-74
2023/07/29 00:12:45;;;;;;;7.80;4.88;;;;;;;15.12;100.00;95696.09;1021090;28;20024;-73
2023/07/29 00:13:16;;;;;;;6.93;4.85;;;;;;;15.06;100.00;95692.78;1026848;28;20030;-73
2023/07/29 00:13:47;;;;;;;5.80;4.75;;;;;;;15.09;100.00;95697.47;1026855;28;20082;-73
2023/07/29 00:14:17;;;;;;;8.85;4.50;;;;;;;15.09;100.00;95697.47;1026500;28;20027;-73
2023/07/29 00:14:48;;;;;;;8.35;4.80;;;;;;;15.11;100.00;95691.88;1026755;28;20600;-74
2023/07/29 00:15:18;;;;;;;7.47;4.82;;;;;;;15.09;100.00;95694.84;1018970;29;20024;-73
2023/07/29 00:15:49;;;;;;;6.28;4.47;;;;;;;15.09;100.00;95697.47;1022710;29;20038;-75
2023/07/29 00:16:21;;;;;;;8.00;5.03;;;;;;;15.10;100.00;95708.81;1026251;28;20030;-74
2023/07/29 00:16:52;;;;;;;7.43;5.07;;;;;;;15.06;100.00;95697.28;1027048;28;20019;-76
2023/07/29 00:17:22;;;;;;;7.45;4.47;;;;;;;15.07;100.00;95691.69;1023140;28;20027;-75
2023/07/29 00:17:53;;;;;;;6.93;5.28;;;;;;;15.03;100.00;95690.72;1025054;28;20026;-73
2023/07/29 00:18:23;;;;;;;8.98;4.97;;;;;;;15.05;100.00;95693.03;1022738;29;20034;-73
2023/07/29 00:18:54;;;;;;;8.40;5.28;;;;;;;15.00;100.00;95688.66;1022785;28;20031;-76
2023/07/29 00:19:24;;;;;;;9.68;5.68;;;;;;;15.07;100.00;95696.97;1022505;29;20035;-76
2023/07/29 00:19:55;;;;;;;7.32;4.60;;;;;;;15.01;100.00;95684.13;1022929;28;20043;-73
2023/07/29 00:20:25;;;;;;;9.85;5.55;;;;;;;15.05;100.00;95696.47;1025943;28;20022;-74
2023/07/29 00:20:56;;;;;;;7.60;5.28;;;;;;;15.01;100.00;95687.56;1022617;28;20038;-75
2023/07/29 00:21:26;;;;;;;7.10;4.75;;;;;;;15.03;100.00;95692.56;1022320;29;20023;-74
2023/07/29 00:21:57;;;;;;;7.97;6.07;;;;;;;15.01;100.00;95694.72;1014938;29;20040;-74
2023/07/29 00:22:27;;;;;;;8.70;5.20;;;;;;;15.00;100.00;95687.88;1018664;29;20032;-74
2023/07/29 00:22:58;;;;;;;6.90;5.03;;;;;;;14.98;100.00;95690.78;1012136;29;20106;-73
2023/07/29 00:23:29;;;;;;;6.25;4.82;;;;;;;14.98;100.00;95695.28;1014839;29;20452;-75
2023/07/29 00:24:01;;;;;;;6.57;5.15;;;;;;;14.89;100.00;95683.81;1018982;29;20059;-73
2023/07/29 00:24:31;;;;;;;7.97;4.90;;;;;;;14.96;100.00;95697.47;1016159;29;20514;-74
2023/07/29 00:25:02;;;;;;;11.75;5.20;;;;;;;14.94;100.00;95689.81;1013044;29;20035;-75
2023/07/29 00:25:32;;;;;;;5.68;4.80;;;;;;;14.96;100.00;95692.94;1022589;29;20032;-73
2023/07/29 00:26:02;;;;;;;7.60;5.32;;;;;;;14.88;100.00;95684.91;1023281;28;20036;-74
2023/07/29 00:26:33;;;;;;;6.63;4.97;;;;;;;14.94;100.00;95689.81;1026324;28;20042;-74
2023/07/29 00:27:04;;;;;;;8.65;5.25;;;;;;;14.95;100.00;95693.22;1022658;28;20824;-75
2023/07/29 00:27:34;;;;;;;6.53;5.18;;;;;;;14.94;100.00;95686.38;1026697;28;20023;-73
2023/07/29 00:28:04;;;;;;;8.80;4.93;;;;;;;14.87;100.00;95678.06;1022484;28;20039;-73
2023/07/29 00:28:35;;;;;;;6.97;5.10;;;;;;;14.91;100.00;95686.97;1018875;29;20064;-74
2023/07/29 00:29:05;;;;;;;8.50;5.78;;;;;;;14.91;100.00;95684.31;1022566;29;20035;-75
2023/07/29 00:29:36;;;;;;;9.50;5.15;;;;;;;14.90;100.00;95685.41;1018642;29;20032;-74
2023/07/29 00:30:07;;;;;;;8.85;5.45;;;;;;;14.92;100.00;95685.88;1018760;29;20099;-76
2023/07/29 00:30:37;;;;;;;7.32;4.70;;;;;;;14.91;100.00;95679.81;1014126;29;20139;-75
2023/07/29 00:31:08;;;;;;;7.50;5.45;;;;;;;14.91;100.00;95679.03;1022411;29;20409;-75
2023/07/29 00:31:38;;;;;;;7.55;4.90;;;;;;;14.91;100.00;95684.31;1026001;28;20030;-73
2023/07/29 00:32:09;;;;;;;9.75;5.07;;;;;;;14.89;100.00;95684.63;1022667;28;20095;-74
2023/07/29 00:32:39;;;;;;;6.88;5.25;;;;;;;14.91;100.00;95681.69;1022446;29;20034;-73
2023/07/29 00:33:10;;;;;;;9.85;5.20;;;;;;;14.90;100.00;95682.75;1022127;28;20035;-73
2023/07/29 00:33:40;;;;;;;7.22;5.00;;;;;;;14.91;100.00;95674.53;1018751;29;20524;-75
2023/07/29 00:34:10;;;;;;;6.38;4.70;;;;;;;14.90;100.00;95677.47;1018686;29;20027;-74
2023/07/29 00:34:41;;;;;;;7.20;5.53;;;;;;;14.89;100.00;95681.16;1022468;28;20043;-74
2023/07/29 00:35:11;;;;;;;10.07;5.70;;;;;;;14.82;100.00;95666.50;1026598;28;20034;-75
2023/07/29 00:35:42;;;;;;;6.15;4.80;;;;;;;14.90;100.00;95674.84;1022609;29;20034;-75
2023/07/29 00:36:12;;;;;;;10.05;5.28;;;;;;;14.88;100.00;95671.69;1018648;29;20469;-73
2023/07/29 00:36:43;;;;;;;6.93;5.38;;;;;;;14.91;100.00;95681.69;1018592;29;20032;-74
2023/07/29 00:37:13;;;;;;;7.88;5.28;;;;;;;14.90;100.00;95674.84;1022419;28;20038;-76
2023/07/29 00:37:44;;;;;;;8.40;5.50;;;;;;;14.89;100.00;95668.78;1022689;28;20031;-74
2023/07/29 00:38:14;;;;;;;8.48;5.22;;;;;;;14.88;100.00;95672.47;1016436;29;20081;-73
2023/07/29 00:38:44;;;;;;;10.55;6.25;;;;;;;14.82;100.00;95655.94;1010736;29;20039;-74
2023/07/29 00:39:15;;;;;;;7.07;5.05;;;;;;;14.91;100.00;95679.03;1014594;29;20024;-74
2023/07/29 00:39:45;;;;;;;6.85;4.60;;;;;;;14.90;100.00;95677.47;1018486;28;20039;-73
2023/07/29 00:40:19;;;;;;;6.90;5.30;;;;;;;14.89;100.00;95678.53;1014604;29;20035;-74
2023/07/29 00:40:50;;;;;;;8.48;5.25;;;;;;;14.89;100.00;95674.06;1018344;29;20031;-75
2023/07/29 00:41:20;;;;;;;7.22;5.35;;;;;;;14.83;100.00;95669.94;1015579;29;20047;-75
2023/07/29 00:41:51;;;;;;;7.07;5.10;;;;;;;14.84;100.00;95668.84;1018291;29;20855;-75
2023/07/29 00:42:21;;;;;;;7.80;5.00;;;;;;;14.85;100.00;95675.69;1014888;29;20549;-74
2023/07/29 00:42:52;;;;;;;11.00;5.53;;;;;;;14.85;100.00;95675.69;1018674;29;20516;-75
2023/07/29 00:43:22;;;;;;;7.15;4.68;;;;;;;14.83;100.00;95673.34;1018656;29;20084;-74
2023/07/29 00:43:53;;;;;;;8.73;5.15;;;;;;;14.78;100.00;95662.06;1018579;29;20040;-74
2023/07/29 00:44:23;;;;;;;5.93;4.97;;;;;;;14.76;100.00;95661.59;1010821;29;20033;-76
2023/07/29 00:44:54;;;;;;;7.55;4.80;;;;;;;14.78;100.00;95670.00;1019458;28;20066;-75
2023/07/29 00:45:25;;;;;;;9.70;4.72;;;;;;;14.75;100.00;95666.06;1022469;29;20082;-74
2023/07/29 00:45:57;;;;;;;6.03;5.10;;;;;;;14.82;100.00;95671.78;1018661;29;20035;-74
2023/07/29 00:46:28;;;;;;;6.95;4.75;;;;;;;14.74;100.00;95664.53;1019009;29;20051;-74
2023/07/29 00:46:58;;;;;;;7.65;5.05;;;;;;;14.82;100.00;95676.25;1018677;29;20035;-74
2023/07/29 00:47:29;;;;;;;7.13;4.78;;;;;;;14.75;100.00;95660.78;1018508;29;20027;-74
2023/07/29 00:47:59;;;;;;;7.93;4.88;;;;;;;14.77;100.00;95656.03;1022524;29;20031;-76
2023/07/29 00:48:30;;;;;;;6.97;4.75;;;;;;;14.81;100.00;95672.84;1014440;29;20042;-73
2023/07/29 00:49:00;;;;;;;7.97;5.22;;;;;;;14.78;100.00;95665.50;1018631;29;20086;-74
2023/07/29 00:49:31;;;;;;;6.43;4.82;;;;;;;14.80;100.00;95662.59;1018481;28;20200;-75
2023/07/29 00:50:01;;;;;;;7.38;4.78;;;;;;;14.78;100.00;95662.06;1018294;29;20031;-74
2023/07/29 00:50:32;;;;;;;9.43;5.32;;;;;;;14.80;100.00;95673.94;1021715;29;20035;-74
2023/07/29 00:51:02;;;;;;;9.18;4.88;;;;;;;14.80;100.00;95667.88;1018517;29;20032;-73
2023/07/29 00:51:33;;;;;;;6.43;5.20;;;;;;;14.74;100.00;95658.47;1018500;29;20674;-73
2023/07/29 00:52:03;;;;;;;8.98;5.80;;;;;;;14.78;100.00;95657.56;1018241;29;20383;-75
2023/07/29 00:52:34;;;;;;;6.30;5.03;;;;;;;14.80;100.00;95668.66;1018561;29;20059;-74
2023/07/29 00:53:04;;;;;;;8.70;5.05;;;;;;;14.80;100.00;95670.50;1026441;28;20033;-73
2023/07/29 00:53:35;;;;;;;7.60;5.00;;;;;;;14.74;100.00;95656.59;1026495;28;20033;-75
2023/07/29 00:54:05;;;;;;;6.22;5.20;;;;;;;14.75;100.00;95654.72;1014654;29;20050;-74
2023/07/29 00:54:36;;;;;;;7.45;5.10;;;;;;;14.77;100.00;95663.16;1022609;29;20026;-76
2023/07/29 00:55:06;;;;;;;9.35;5.63;;;;;;;14.77;100.00;95663.94;1022357;29;20505;-76
2023/07/29 00:55:37;;;;;;;11.60;5.95;;;;;;;14.80;100.00;95663.38;1022410;29;20054;-73
2023/07/29 00:56:07;;;;;;;9.07;5.53;;;;;;;14.81;100.00;95666.78;1018291;29;20059;-75
2023/07/29 00:56:38;;;;;;;6.38;5.38;;;;;;;14.78;100.00;95667.38;1022500;29;20027;-74
2023/07/29 00:57:08;;;;;;;6.22;5.20;;;;;;;14.79;100.00;95666.31;1018155;29;20024;-74
2023/07/29 00:57:40;;;;;;;6.55;5.10;;;;;;;14.74;100.00;95667.16;1014684;29;20024;-74
2023/07/29 00:58:10;;;;;;;7.78;5.57;;;;;;;14.78;100.00;95670.78;1010542;29;20043;-72
2023/07/29 00:58:40;;;;;;;7.53;5.65;;;;;;;14.76;100.00;95672.16;1009173;29;20770;-75
2023/07/29 00:59:11;;;;;;;8.40;5.93;;;;;;;14.77;100.00;95668.44;1014661;29;20139;-74
2023/07/29 00:59:41;;;;;;;11.07;6.20;;;;;;;14.73;100.00;95662.97;1010854;29;20025;-75
2023/07/29 01:00:12;;;;;;;7.22;5.82;;;;;;;14.74;100.00;95669.81;1015496;29;20040;-74
2023/07/29 01:00:43;;;;;;;7.68;6.15;;;;;;;14.69;100.00;95661.97;1021910;29;20568;-75
2023/07/29 01:01:13;;;;;;;6.75;5.40;;;;;;;14.52;100.00;95630.84;1022440;29;20058;-75
2023/07/29 01:01:44;;;;;;;8.55;6.05;;;;;;;14.73;100.00;95668.25;1026444;28;20101;-76
2023/07/29 01:02:14;;;;;;;7.85;5.80;;;;;;;14.73;100.00;95668.25;1022360;29;20034;-74
2023/07/29 01:02:45;;;;;;;8.70;5.95;;;;;;;14.67;100.00;95660.69;1018633;29;20053;-73
2023/07/29 01:03:15;;;;;;;10.90;6.18;;;;;;;14.72;100.00;95666.69;1018675;29;20035;-74
2023/07/29 01:03:46;;;;;;;8.13;5.55;;;;;;;14.72;100.00;95665.88;1022362;29;20031;-74
2023/07/29 01:04:16;;;;;;;10.75;5.78;;;;;;;14.72;100.00;95666.69;1018565;29;20031;-75
2023/07/29 01:04:54;;;;;;;10.00;6.10;;;;;;;14.66;100.00;95659.91;1018675;29;20040;-76
2023/07/29 01:05:27;;;;;;;7.97;5.60;;;;;;;14.71;100.00;95661.69;1020505;28;20090;-73
2023/07/29 01:06:20;;;;;;;9.60;5.70;;;;;;;14.67;100.00;95658.06;1020006;29;20035;-76
2023/07/29 01:07:49;;;;;;;13.45;5.43;;;;;;;14.71;100.00;95669.59;1018476;29;20028;-76
2023/07/29 01:08:29;;;;;;;7.47;5.10;;;;;;;14.69;100.00;95664.63;1011820;29;20025;-75
2023/07/29 01:09:06;;;;;;;10.13;6.10;;;;;;;14.69;100.00;95661.16;1010340;29;20569;-76
2023/07/29 01:09:57;;;;;;;9.85;5.75;;;;;;;14.66;100.00;95665.19;1002867;29;20040;-75
2023/07/29 01:10:38;;;;;;;6.72;5.47;;;;;;;14.65;100.00;95657.56;1000076;29;20033;-75
2023/07/29 01:11:22;;;;;;;6.40;5.60;;;;;;;14.56;100.00;95646.88;1018622;29;20087;-75
2023/07/29 01:12:01;;;;;;;8.23;5.45;;;;;;;14.55;100.00;95655.84;1014523;29;20687;-74
2023/07/29 01:12:48;;;;;;;6.50;5.20;;;;;;;14.64;100.00;95658.63;1014338;29;20027;-76
2023/07/29 01:13:33;;;;;;;10.70;5.82;;;;;;;14.62;100.00;95658.94;1018632;29;20054;-73
2023/07/29 01:14:34;;;;;;;7.25;5.72;;;;;;;14.60;100.00;95653.16;1022690;28;20027;-73
2023/07/29 01:15:04;;;;;;;6.25;5.25;;;;;;;14.59;100.00;95651.59;1016118;29;20118;-74
2023/07/29 01:15:55;;;;;;;10.95;5.72;;;;;;;14.56;100.00;95658.22;1018249;29;20019;-75
2023/07/29 01:16:31;;;;;;;10.57;5.82;;;;;;;14.50;100.00;95642.72;1018452;29;20023;-76
2023/07/29 01:17:03;;;;;;;7.25;5.75;;;;;;;14.50;100.00;95645.38;1022212;29;20039;-75
2023/07/29 01:17:37;;;;;;;8.93;5.97;;;;;;;14.49;100.00;95649.09;1020594;28;20020;-75
2023/07/29 01:18:18;;;;;;;13.57;6.88;;;;;;;14.50;100.00;95650.66;1026370;28;20141;-75
2023/07/29 01:18:48;;;;;;;8.82;5.70;;;;;;;14.47;100.00;95649.38;1022193;28;20027;-74
2023/07/29 01:19:27;;;;;;;10.55;5.88;;;;;;;14.52;100.00;95656.44;1016221;29;20375;-75
2023/07/29 01:20:05;;;;;;;8.93;6.25;;;;;;;14.52;100.00;95661.72;1006817;29;20081;-75
2023/07/29 01:20:37;;;;;;;8.32;6.07;;;;;;;14.52;100.00;95659.06;1017166;29;20441;-74
2023/07/29 01:21:09;;;;;;;8.02;6.10;;;;;;;14.47;100.00;95648.59;1017953;29;20546;-75
2023/07/29 01:21:39;;;;;;;10.15;6.30;;;;;;;14.52;100.00;95659.88;1019975;29;20083;-74
2023/07/29 01:22:10;;;;;;;13.65;6.80;;;;;;;14.53;100.00;95660.66;1019367;29;20088;-74
2023/07/29 01:22:41;;;;;;;10.60;6.70;;;;;;;14.52;100.00;95661.72;1018377;29;20032;-74
2023/07/29 01:23:11;;;;;;;9.98;6.57;;;;;;;14.44;100.00;95646.50;1019384;29;20027;-76
2023/07/29 01:23:42;;;;;;;8.95;6.40;;;;;;;14.49;100.00;95655.16;1014760;29;20024;-73
2023/07/29 01:24:12;;;;;;;9.57;6.53;;;;;;;14.51;100.00;95660.16;1016558;29;20382;-73
2023/07/29 01:24:43;;;;;;;11.32;6.68;;;;;;;14.48;100.00;95656.19;1018307;29;20020;-74
2023/07/29 01:25:13;;;;;;;10.32;6.13;;;;;;;14.50;100.00;95656.75;1018663;29;20030;-73
2023/07/29 01:25:44;;;;;;;9.57;6.40;;;;;;;14.51;100.00;95654.88;1018419;29;20027;-76
2023/07/29 01:26:14;;;;;;;8.32;6.53;;;;;;;14.50;100.00;95654.09;1018475;28;20466;-75
2023/07/29 01:26:44;;;;;;;6.93;6.07;;;;;;;14.52;100.00;95653.78;1022402;28;20027;-74
2023/07/29 01:27:15;;;;;;;11.18;6.68;;;;;;;14.50;100.00;95655.94;1026403;28;20057;-73
2023/07/29 01:27:48;;;;;;;8.13;6.50;;;;;;;14.52;100.00;95654.59;1026229;28;20030;-74
2023/07/29 01:28:19;;;;;;;9.55;6.38;;;;;;;14.49;100.00;95641.16;1018749;29;20089;-76
2023/07/29 01:28:49;;;;;;;10.65;6.50;;;;;;;14.51;100.00;95649.59;1018449;29;20090;-73
2023/07/29 01:29:19;;;;;;;7.32;6.47;;;;;;;14.47;100.00;95640.66;1019590;29;20082;-74
2023/07/29 01:29:50;;;;;;;8.85;6.25;;;;;;;14.51;100.00;95652.22;1031123;28;20019;-75
2023/07/29 01:30:21;;;;;;;8.02;5.95;;;;;;;14.55;100.00;95655.84;1023226;28;20026;-76
2023/07/29 01:30:56;;;;;;;9.73;6.43;;;;;;;14.54;100.00;95652.44;1018259;29;20596;-75
2023/07/29 01:31:33;;;;;;;8.93;6.30;;;;;;;14.54;100.00;95649.03;1027483;28;20025;-76
2023/07/29 01:32:18;;;;;;;8.55;6.25;;;;;;;14.55;100.00;95655.84;1026481;28;20050;-75
2023/07/29 01:32:58;;;;;;;12.68;6.65;;;;;;;14.49;100.00;95646.44;1022444;29;20066;-73
2023/07/29 01:33:33;;;;;;;10.65;6.40;;;;;;;14.52;100.00;95651.16;1010877;29;20119;-74
2023/07/29 01:34:13;;;;;;;10.00;6.40;;;;;;;14.45;100.00;95648.06;1018428;28;20122;-77
2023/07/29 01:34:46;;;;;;;8.85;6.07;;;;;;;14.38;100.00;95638.69;1019751;29;20031;-74
2023/07/29 01:35:39;;;;;;;7.78;6.30;;;;;;;14.44;100.00;95646.50;1007688;29;20064;-73
2023/07/29 01:36:20;;;;;;;9.82;6.47;;;;;;;14.38;100.00;95643.97;1014481;29;20043;-76
2023/07/29 01:36:51;;;;;;;9.15;6.70;;;;;;;14.42;100.00;95656.56;1022783;28;20023;-75
2023/07/29 01:37:23;;;;;;;8.60;6.43;;;;;;;14.39;100.00;95639.47;1018585;29;20074;-76
2023/07/29 01:37:56;;;;;;;7.40;6.40;;;;;;;14.42;100.00;95646.81;1014380;29;20036;-73
2023/07/29 01:38:33;;;;;;;7.45;6.07;;;;;;;14.44;100.00;95641.25;1022179;29;20038;-74
2023/07/29 01:39:03;;;;;;;10.20;6.85;;;;;;;14.46;100.00;95642.53;1024559;28;20424;-73
2023/07/29 01:39:34;;;;;;;11.75;6.63;;;;;;;14.41;100.00;95629.38;1025573;28;20031;-75
2023/07/29 01:40:05;;;;;;;9.10;6.32;;;;;;;14.43;100.00;95637.81;1018216;29;20663;-75
2023/07/29 01:40:35;;;;;;;8.23;6.43;;;;;;;14.41;100.00;95639.16;1018289;29;20042;-76
2023/07/29 01:41:07;;;;;;;9.98;7.05;;;;;;;14.44;100.00;95641.25;1018348;29;20027;-75
2023/07/29 01:41:37;;;;;;;8.38;6.53;;;;;;;14.44;100.00;95649.94;1018156;29;20087;-74
2023/07/29 01:42:08;;;;;;;9.15;6.65;;;;;;;14.43;100.00;95648.38;1014842;29;20032;-76
2023/07/29 01:42:38;;;;;;;9.20;6.00;;;;;;;14.42;100.00;95646.00;1018815;29;20027;-76
2023/07/29 01:43:09;;;;;;;8.75;6.05;;;;;;;14.37;100.00;95631.03;1014562;29;20035;-73
2023/07/29 01:43:43;;;;;;;9.25;6.45;;;;;;;14.39;100.00;95642.13;1014596;29;20013;-75
2023/07/29 01:44:14;;;;;;;8.82;6.15;;;;;;;14.39;100.00;95644.75;1006677;29;20111;-76
2023/07/29 01:44:44;;;;;;;9.63;6.03;;;;;;;14.35;100.00;95643.75;1014491;29;20031;-74
2023/07/29 01:45:15;;;;;;;11.25;6.30;;;;;;;14.39;100.00;95653.44;1018306;29;20099;-75
2023/07/29 01:45:46;;;;;;;10.23;6.32;;;;;;;14.35;100.00;95647.19;1022354;29;20020;-75
2023/07/29 01:46:16;;;;;;;15.65;6.72;;;;;;;14.30;100.00;95638.56;1018411;29;20020;-76
2023/07/29 01:46:47;;;;;;;8.13;6.28;;;;;;;14.33;100.00;95644.03;1018241;29;20015;-75
2023/07/29 01:47:17;;;;;;;10.18;6.68;;;;;;;14.35;100.00;95655.09;1018498;29;20031;-74
2023/07/29 01:47:48;;;;;;;9.85;6.70;;;;;;;14.36;100.00;95653.25;1014515;29;20099;-74
2023/07/29 01:48:18;;;;;;;10.55;6.45;;;;;;;14.29;100.00;95637.00;1014476;29;20020;-74
2023/07/29 01:48:49;;;;;;;15.70;7.70;;;;;;;14.36;100.00;95664.59;1022275;28;20012;-73
2023/07/29 01:49:19;;;;;;;9.25;6.38;;;;;;;14.36;100.00;95656.66;1026257;28;20030;-77
2023/07/29 01:49:50;;;;;;;11.70;6.32;;;;;;;14.35;100.00;95657.75;1018363;29;20020;-74
2023/07/29 01:50:20;;;;;;;7.05;5.70;;;;;;;14.32;100.00;95646.97;1021551;28;20082;-76
2023/07/29 01:50:50;;;;;;;6.13;5.53;;;;;;;14.29;100.00;95643.06;1022214;28;20016;-76
2023/07/29 01:51:21;;;;;;;10.00;5.88;;;;;;;14.37;100.00;95652.94;1018383;29;20023;-76
2023/07/29 01:51:52;;;;;;;8.98;5.80;;;;;;;14.38;100.00;95657.16;1014428;29;20578;-74
2023/07/29 01:52:22;;;;;;;10.43;6.10;;;;;;;14.41;100.00;95655.00;1014444;29;20023;-75
2023/07/29 01:52:53;;;;;;;9.10;6.10;;;;;;;14.39;100.00;95648.16;1014571;29;20029;-76
2023/07/29 01:53:23;;;;;;;8.73;5.90;;;;;;;14.42;100.00;95651.28;1018591;29;20354;-77
2023/07/29 01:53:55;;;;;;;7.95;5.75;;;;;;;14.39;100.00;95642.88;1018446;29;20028;-74
2023/07/29 01:54:25;;;;;;;10.32;6.40;;;;;;;14.44;100.00;95646.50;1016578;29;20027;-76
2023/07/29 01:54:56;;;;;;;8.07;6.28;;;;;;;14.43;100.00;95647.59;1014850;29;20036;-75
2023/07/29 01:55:26;;;;;;;8.48;5.93;;;;;;;14.42;100.00;95646.00;1014631;29;20036;-75
2023/07/29 01:55:57;;;;;;;9.98;5.65;;;;;;;14.41;100.00;95645.22;1018700;29;20028;-76
2023/07/29 01:56:27;;;;;;;9.27;6.00;;;;;;;14.39;100.00;95648.16;1020581;28;20028;-76
2023/07/29 01:56:58;;;;;;;8.75;6.13;;;;;;;14.30;100.00;95630.63;1023871;28;20038;-75
2023/07/29 01:57:28;;;;;;;8.90;5.80;;;;;;;14.37;100.00;95638.97;1026473;28;20034;-74
2023/07/29 01:57:59;;;;;;;7.60;5.63;;;;;;;14.25;100.00;95620.97;1030456;28;20724;-75
2023/07/29 01:58:29;;;;;;;9.70;6.05;;;;;;;14.35;100.00;95641.09;1025204;28;20030;-73
2023/07/29 01:59:00;;;;;;;8.30;5.50;;;;;;;14.33;100.00;95643.25;1022462;29;20054;-75
2023/07/29 01:59:30;;;;;;;9.70;5.63;;;;;;;14.35;100.00;95646.38;1022330;29;20020;-75
2023/07/29 02:00:01;;;;;;;10.43;5.97;;;;;;;14.36;100.00;95645.31;1018362;29;20028;-76
2023/07/29 02:00:32;;;;;;;7.70;5.88;;;;;;;14.37;100.00;95644.25;1013624;29;20057;-75
2023/07/29 02:01:02;;;;;;;8.38;5.80;;;;;;;14.35;100.00;95638.47;1014489;29;20024;-75
2023/07/29 02:01:33;;;;;;;8.10;5.25;;;;;;;14.37;100.00;95644.25;1014806;29;20120;-73
2023/07/29 02:02:03;;;;;;;8.88;5.88;;;;;;;14.33;100.00;95633.47;1018566;29;21079;-75
2023/07/29 02:02:34;;;;;;;7.45;5.38;;;;;;;14.18;100.00;95612.59;1014535;29;20445;-75
2023/07/29 02:03:04;;;;;;;9.43;5.90;;;;;;;14.35;100.00;95633.19;1014273;29;20032;-75
2023/07/29 02:03:35;;;;;;;7.53;6.00;;;;;;;14.35;100.00;95631.34;1014467;29;20076;-73
2023/07/29 02:04:05;;;;;;;7.75;5.88;;;;;;;14.34;100.00;95627.13;1018504;28;20032;-74
2023/07/29 02:04:36;;;;;;;11.40;6.05;;;;;;;14.27;100.00;95621.44;1022424;28;20058;-75
2023/07/29 02:05:07;;;;;;;7.25;5.60;;;;;;;14.36;100.00;95634.78;1018235;29;20015;-73
2023/07/29 02:05:37;;;;;;;7.90;6.15;;;;;;;14.36;100.00;95632.91;1022129;28;20023;-76
2023/07/29 02:06:08;;;;;;;9.18;5.63;;;;;;;14.32;100.00;95631.94;1022297;29;20084;-76
2023/07/29 02:06:38;;;;;;;7.82;5.93;;;;;;;14.34;100.00;95626.34;1018361;29;20071;-76
2023/07/29 02:07:09;;;;;;;8.80;5.15;;;;;;;14.32;100.00;95624.00;1016160;29;20031;-74
2023/07/29 02:07:39;;;;;;;11.23;6.18;;;;;;;14.35;100.00;95641.91;1018558;29;20676;-74
2023/07/29 02:08:10;;;;;;;8.85;6.28;;;;;;;14.36;100.00;95632.13;1022500;28;20027;-76
2023/07/29 02:08:41;;;;;;;12.18;6.28;;;;;;;14.29;100.00;95621.94;1021412;28;20027;-74
2023/07/29 02:09:11;;;;;;;10.07;6.07;;;;;;;14.32;100.00;95626.66;1015331;29;20580;-76
2023/07/29 02:09:41;;;;;;;10.82;5.85;;;;;;;14.37;100.00;95631.03;1022399;29;20031;-75
2023/07/29 02:10:12;;;;;;;10.65;5.90;;;;;;;14.28;100.00;95617.72;1022354;29;20035;-74
2023/07/29 02:10:44;;;;;;;12.13;5.90;;;;;;;14.35;100.00;95631.34;1021772;28;20027;-76
2023/07/29 02:11:15;;;;;;;9.82;5.70;;;;;;;14.29;100.00;95611.38;1033648;28;20145;-74
2023/07/29 02:11:45;;;;;;;7.82;6.03;;;;;;;14.35;100.00;95633.19;1022338;29;20039;-75
2023/07/29 02:12:16;;;;;;;12.20;5.93;;;;;;;14.34;100.00;95629.75;1022412;29;20031;-76
2023/07/29 02:12:46;;;;;;;7.03;5.35;;;;;;;14.31;100.00;95619.00;1024737;28;20094;-74
2023/07/29 02:13:17;;;;;;;10.65;6.03;;;;;;;14.36;100.00;95625.00;1022418;28;20032;-77
2023/07/29 02:13:47;;;;;;;7.93;5.70;;;;;;;14.34;100.00;95623.69;1026353;28;20019;-74
2023/07/29 02:14:18;;;;;;;8.65;6.35;;;;;;;14.36;100.00;95627.63;1021230;29;20040;-75
2023/07/29 02:14:48;;;;;;;10.20;5.93;;;;;;;14.35;100.00;95634.00;1014523;29;20028;-76
2023/07/29 02:15:18;;;;;;;9.15;5.32;;;;;;;14.35;100.00;95628.72;1014473;29;20340;-76
2023/07/29 02:15:49;;;;;;;10.27;5.60;;;;;;;14.36;100.00;95626.84;1010567;29;20032;-74
2023/07/29 02:16:20;;;;;;;7.78;5.63;;;;;;;14.38;100.00;95628.13;1014244;29;20028;-75
2023/07/29 02:16:51;;;;;;;9.63;5.85;;;;;;;14.37;100.00;95623.13;1014894;29;20028;-74
2023/07/29 02:17:21;;;;;;;11.73;6.10;;;;;;;14.38;100.00;95630.78;1014744;29;20039;-76
2023/07/29 02:17:52;;;;;;;8.18;6.57;;;;;;;14.39;100.00;95621.78;1022088;28;20472;-75
2023/07/29 02:18:22;;;;;;;10.07;6.05;;;;;;;14.35;100.00;95625.25;1014454;29;20024;-77
2023/07/29 02:18:53;;;;;;;6.30;5.55;;;;;;;14.41;100.00;95628.63;1018347;29;20050;-74
2023/07/29 02:19:23;;;;;;;11.68;5.97;;;;;;;14.41;100.00;95625.97;1022047;28;20023;-75
2023/07/29 02:19:53;;;;;;;7.22;6.13;;;;;;;14.41;100.00;95636.53;1026051;28;20035;-75
2023/07/29 02:20:24;;;;;;;7.75;5.95;;;;;;;14.39;100.00;95634.97;1021597;29;20086;-75
2023/07/29 02:20:54;;;;;;;7.10;5.43;;;;;;;14.42;100.00;95638.09;1022111;29;20031;-75
2023/07/29 02:21:25;;;;;;;8.38;5.85;;;;;;;14.43;100.00;95637.03;1022205;29;20024;-75
2023/07/29 02:21:55;;;;;;;7.70;5.60;;;;;;;14.44;100.00;95638.59;1026705;28;20591;-75
2023/07/29 02:22:26;;;;;;;7.47;5.95;;;;;;;14.44;100.00;95636.72;1029121;28;20467;-75
2023/07/29 02:22:56;;;;;;;7.53;5.50;;;;;;;14.44;100.00;95638.59;1030511;28;20042;-74
2023/07/29 02:23:27;;;;;;;9.52;6.10;;;;;;;14.46;100.00;95641.75;1026793;28;20085;-74
2023/07/29 02:23:57;;;;;;;7.88;5.82;;;;;;;14.45;100.00;95640.94;1026957;28;20026;-74
2023/07/29 02:24:27;;;;;;;6.82;5.45;;;;;;;14.43;100.00;95637.03;1022296;28;20038;-75
2023/07/29 02:24:58;;;;;;;9.02;5.72;;;;;;;14.48;100.00;95636.94;1014907;29;20491;-73
2023/07/29 02:25:28;;;;;;;8.82;5.53;;;;;;;14.45;100.00;95630.38;1018402;29;20023;-74
2023/07/29 02:25:59;;;;;;;9.77;5.95;;;;;;;14.49;100.00;95636.66;1014990;29;20031;-74
2023/07/29 02:26:29;;;;;;;7.30;5.70;;;;;;;14.52;100.00;95643.22;1018816;29;20087;-76
2023/07/29 02:27:00;;;;;;;7.40;5.60;;;;;;;14.49;100.00;95628.75;1023677;28;20509;-76
2023/07/29 02:27:30;;;;;;;9.18;5.88;;;;;;;14.54;100.00;95636.59;1027557;28;20023;-74
2023/07/29 02:28:03;;;;;;;12.48;5.68;;;;;;;14.54;100.00;95636.59;1033553;28;20030;-74
2023/07/29 02:28:33;;;;;;;6.93;6.00;;;;;;;14.54;100.00;95630.53;1031544;28;20026;-74